Berthold, North Dakota
Current Conditions -  °F | °C
As of 7:58 AM on Monday 20 Oct 2014 (Local Time) from KMIB Reporting Station
Clear Clear  
Wind Chill: 30°   Ceiling: Unl
Heat Index: 35°   Visibility: 10mi
Dew Point: 33°   Wind: 6mph
Humidity: 92%   Direction: 160°SSE
Pressure: 30.01"   Gusts: NA
Location:  48.31°N, 101.74°W
Report Text: KMIB 201258Z AUTO 16005KT 10SM CLR 02/01 A3001 RMK AO2 SLP182 T00170005 $
Loading
Personal Weather Stations






























Interactive Weather Map
Tropical Storm Tracking
New forecast layout! Learn more

10-Day Weather Forecast

Advertisements
Track Severe Weather on mobile